createdAt,value
2019-04-04T00:00:16.332Z,115
2019-04-04T00:01:28.531Z,108.7
2019-04-04T00:02:40.724Z,110.2
2019-04-04T00:03:52.092Z,107.2
2019-04-04T00:05:05.104Z,108.7
2019-04-04T00:06:17.304Z,107.3
2019-04-04T00:07:29.500Z,115.4
2019-04-04T00:08:41.687Z,114.2
2019-04-04T00:09:53.880Z,105.3
2019-04-04T00:11:06.080Z,113
2019-04-04T00:12:18.270Z,106.8
2019-04-04T00:13:30.485Z,99.6
2019-04-04T00:14:42.662Z,97.8
2019-04-04T00:15:54.853Z,98.1
2019-04-04T00:17:07.050Z,105.5
2019-04-04T00:18:19.244Z,97.9
2019-04-04T00:19:31.430Z,104.2
2019-04-04T00:20:43.630Z,99.1
2019-04-04T00:21:55.815Z,109.4
2019-04-04T00:23:08.011Z,99.6
2019-04-04T00:24:20.209Z,95.6
2019-04-04T00:25:32.406Z,89.9
2019-04-04T00:26:44.598Z,90
2019-04-04T00:27:56.788Z,83.8
2019-04-04T00:29:08.978Z,84.6
2019-04-04T00:30:21.236Z,90.2
2019-04-04T00:31:33.370Z,87.1
2019-04-04T00:32:45.561Z,96.5
2019-04-04T00:33:57.761Z,89.5
2019-04-04T00:35:09.953Z,87.4
2019-04-04T00:53:12.943Z,80.3
2019-04-04T00:54:25.041Z,80.7
2019-04-04T00:55:37.245Z,78.5
2019-04-04T00:56:49.465Z,77.5
2019-04-04T00:58:01.622Z,82.4
2019-04-04T00:59:13.824Z,80.2
2019-04-04T01:00:26.019Z,76.5
2019-04-04T01:01:38.202Z,79
2019-04-04T01:02:50.406Z,76.7
2019-04-04T01:04:02.592Z,80
2019-04-04T01:05:14.793Z,82.1
2019-04-04T01:06:26.984Z,75.9
2019-04-04T01:07:39.171Z,78.7
2019-04-04T01:08:51.373Z,75.3
2019-04-04T01:10:03.563Z,74.4
2019-04-04T01:11:15.753Z,73.2
2019-04-04T01:12:27.955Z,76.7
2019-04-04T01:13:40.137Z,76.5
2019-04-04T01:14:52.034Z,76.7
2019-04-04T01:16:04.534Z,75.7
2019-04-04T01:18:28.921Z,74.9
2019-04-04T01:19:41.113Z,72.1
2019-04-04T01:20:53.301Z,74.1
2019-04-04T01:22:05.521Z,79.1
2019-04-04T01:23:17.695Z,73.1
2019-04-04T01:24:29.879Z,76.3
2019-04-04T01:25:42.081Z,74.9
2019-04-04T01:26:54.276Z,80.7
2019-04-04T01:28:06.473Z,76.2
2019-04-04T01:29:18.787Z,82.5
2019-04-04T01:30:30.847Z,86.3
2019-04-04T01:31:43.054Z,85.3
2019-04-04T01:32:55.243Z,78.9
2019-04-04T01:34:07.446Z,80
2019-04-04T01:35:19.629Z,86.4
2019-04-04T01:36:31.815Z,83.2
2019-04-04T01:37:44.019Z,81.9
2019-04-04T01:38:56.211Z,85.7
2019-04-04T01:40:08.409Z,85.7
2019-04-04T01:41:20.599Z,90.4
2019-04-04T01:42:32.798Z,85
2019-04-04T01:43:44.989Z,85.4
2019-04-04T01:44:57.179Z,87.1
2019-04-04T01:46:09.369Z,87.9
2019-04-04T01:47:21.567Z,96.8
2019-04-04T01:48:33.761Z,101.9
2019-04-04T01:49:45.959Z,95.7
2019-04-04T01:50:58.154Z,98.4
2019-04-04T01:52:10.337Z,96.8
2019-04-04T01:53:22.053Z,109.1
2019-04-04T01:54:34.730Z,100.5
2019-04-04T01:55:46.915Z,111.4
2019-04-04T01:56:59.122Z,106.8
2019-04-04T01:58:11.309Z,108.5
2019-04-04T01:59:23.506Z,115.1
2019-04-04T02:00:35.712Z,105.5
2019-04-04T02:01:47.897Z,122.8
2019-04-04T02:03:00.082Z,126.7
2019-04-04T02:04:12.280Z,117.9
2019-04-04T02:05:24.476Z,128.9
2019-04-04T02:06:36.669Z,113.6
2019-04-04T02:07:48.857Z,125.5
2019-04-04T02:09:01.051Z,116.5
2019-04-04T02:10:13.245Z,124.5
2019-04-04T02:11:25.447Z,111.3
2019-04-04T02:12:37.635Z,121.1
2019-04-04T02:13:49.825Z,137.7
2019-04-04T02:15:02.028Z,127.2
2019-04-04T02:16:14.211Z,126.9
2019-04-04T02:17:26.407Z,119.3
2019-04-04T02:18:38.060Z,130.1
2019-04-04T02:19:50.797Z,127.3
2019-04-04T02:21:02.993Z,134.9
2019-04-04T02:22:15.181Z,135.2
2019-04-04T02:23:27.373Z,121.2
2019-04-04T02:24:39.646Z,121.9
2019-04-04T02:25:51.759Z,131
2019-04-04T02:27:03.959Z,139.6
2019-04-04T02:28:16.151Z,143.4
2019-04-04T02:29:28.345Z,107.3
2019-04-04T02:30:40.543Z,140.4
2019-04-04T02:31:52.785Z,156.2
2019-04-04T02:33:04.921Z,139.4
2019-04-04T02:34:17.130Z,133.8
2019-04-04T02:35:29.315Z,134.9
2019-04-04T02:36:42.656Z,161.1
2019-04-04T02:37:53.704Z,159.4
2019-04-04T02:39:05.090Z,133.7
2019-04-04T02:40:18.089Z,154.8
2019-04-04T02:41:30.284Z,136.9
2019-04-04T02:42:42.472Z,151.8
2019-04-04T02:43:54.675Z,162
2019-04-04T02:45:06.862Z,166.2
2019-04-04T02:46:19.051Z,136.2
2019-04-04T02:47:31.251Z,148.1
2019-04-04T02:48:43.440Z,161.1
2019-04-04T02:49:55.064Z,166.3
2019-04-04T02:51:07.830Z,165.3
2019-04-04T02:52:20.028Z,142.8
2019-04-04T02:53:32.221Z,142.4
2019-04-04T02:54:44.408Z,160.8
2019-04-04T02:55:56.602Z,180.3
2019-04-04T02:57:08.804Z,166.4
2019-04-04T02:58:20.990Z,150.9
2019-04-04T02:59:33.203Z,167.1
2019-04-04T03:00:45.389Z,169
2019-04-04T03:01:57.582Z,159.3
2019-04-04T03:03:09.774Z,162.4
2019-04-04T03:04:21.960Z,151.1
2019-04-04T03:05:34.157Z,150
2019-04-04T03:06:46.034Z,139
2019-04-04T03:07:58.536Z,135.4
2019-04-04T03:09:10.740Z,140.2
2019-04-04T03:10:22.928Z,137.8
2019-04-04T03:11:35.011Z,138.2
2019-04-04T03:12:47.320Z,147.7
2019-04-04T03:13:59.510Z,141.7
2019-04-04T03:15:11.696Z,137
2019-04-04T03:16:23.897Z,126.5
2019-04-04T03:17:36.086Z,139.3
2019-04-04T03:18:48.288Z,139.5
2019-04-04T03:20:00.476Z,137.5
2019-04-04T03:21:12.679Z,139.1
2019-04-04T03:22:24.867Z,133
2019-04-04T03:23:37.057Z,153.9
2019-04-04T03:24:49.244Z,140.6
2019-04-04T03:26:01.446Z,145.1
2019-04-04T03:27:13.639Z,157.7
2019-04-04T03:28:25.836Z,140.7
2019-04-04T03:29:38.025Z,138.9
2019-04-04T03:30:50.257Z,161.5
2019-04-04T03:32:02.041Z,168.1
2019-04-04T03:33:14.610Z,156.9
2019-04-04T03:34:26.795Z,159.4
2019-04-04T03:35:38.994Z,158
2019-04-04T03:36:51.187Z,167.1
2019-04-04T03:38:03.388Z,169.3
2019-04-04T03:39:15.574Z,168.2
2019-04-04T03:40:27.764Z,167.6
2019-04-04T03:41:39.968Z,166.7
2019-04-04T03:42:52.159Z,160.7
2019-04-04T03:44:04.356Z,159.1
2019-04-04T03:45:16.544Z,161.3
2019-04-04T03:46:28.732Z,179.3
2019-04-04T03:47:40.937Z,173.4
2019-04-04T03:48:53.127Z,194.6
2019-04-04T03:50:05.313Z,186.9
2019-04-04T03:51:17.521Z,187.4
2019-04-04T03:52:29.704Z,189.2
2019-04-04T03:53:41.915Z,178.1
2019-04-04T03:54:54.095Z,170.2
2019-04-04T03:56:06.290Z,156.5
2019-04-04T03:57:18.490Z,155.2
2019-04-04T03:58:30.677Z,152.6
2019-04-04T03:59:42.873Z,147.6
2019-04-04T04:00:55.061Z,146.7
2019-04-04T04:02:07.253Z,141
2019-04-04T04:03:19.449Z,140.1
2019-04-04T04:04:31.642Z,135.8
2019-04-04T04:05:43.832Z,129.7
2019-04-04T04:06:56.031Z,130.5
2019-04-04T04:08:08.250Z,134.6
2019-04-04T04:09:20.420Z,141.8
2019-04-04T04:10:32.611Z,140.8
2019-04-04T04:11:44.799Z,132.2
2019-04-04T04:12:57.000Z,125.5
2019-04-04T04:14:09.828Z,126.6
2019-04-04T04:15:21.384Z,123.7
2019-04-04T04:16:33.575Z,120.6
2019-04-04T04:17:45.777Z,130.7
2019-04-04T04:18:57.963Z,129.6
2019-04-04T04:20:10.153Z,127.3
2019-04-04T04:21:22.351Z,126
2019-04-04T04:22:34.553Z,126.5
2019-04-04T04:23:46.737Z,126
2019-04-04T04:24:58.929Z,132.3
2019-04-04T04:26:11.012Z,125.7
2019-04-04T04:27:23.321Z,120.8
2019-04-04T04:28:35.509Z,124.6
2019-04-04T04:29:47.709Z,124.9
2019-04-04T04:30:59.904Z,131.9
2019-04-04T04:32:12.099Z,135.1
2019-04-04T04:33:24.281Z,144.6
2019-04-04T04:34:36.477Z,150.7
2019-04-04T04:35:48.006Z,110
2019-04-04T04:37:00.868Z,132.9
2019-04-04T04:38:13.058Z,140.4
2019-04-04T04:39:25.251Z,167.5
2019-04-04T04:40:37.448Z,166.8
2019-04-04T04:41:49.646Z,142.8
2019-04-04T04:43:01.083Z,190.6
2019-04-04T04:44:14.028Z,147.8
2019-04-04T04:45:26.228Z,157.4
2019-04-04T04:46:38.416Z,178.3
2019-04-04T04:47:50.617Z,187.6
2019-04-04T04:49:02.804Z,177.1
2019-04-04T04:50:14.994Z,182.4
2019-04-04T04:51:27.193Z,200.5
2019-04-04T04:52:39.387Z,193
2019-04-04T04:53:51.005Z,180.9
2019-04-04T04:55:03.782Z,190.3
2019-04-04T04:56:15.960Z,172.6
2019-04-04T04:57:28.170Z,187.8
2019-04-04T04:58:40.363Z,191.7
2019-04-04T04:59:52.551Z,192.4
2019-04-04T05:01:04.074Z,187.5
2019-04-04T05:02:16.935Z,201.6
2019-04-04T05:03:29.134Z,185.1
2019-04-04T05:04:41.322Z,194.6
2019-04-04T05:05:53.513Z,185.3
2019-04-04T05:07:05.071Z,184.8
2019-04-04T05:08:17.899Z,205.3
2019-04-04T05:09:30.121Z,216.8
2019-04-04T05:10:42.029Z,220.6
2019-04-04T05:11:54.475Z,174.2
2019-04-04T05:13:06.733Z,178.6
2019-04-04T05:14:18.870Z,207.4
2019-04-04T05:15:31.079Z,202.5
2019-04-04T05:16:43.262Z,186.4
2019-04-04T05:17:55.446Z,166.5
2019-04-04T05:19:07.674Z,225.4
2019-04-04T05:20:19.842Z,181.4
2019-04-04T05:21:32.030Z,213.6
2019-04-04T05:22:44.023Z,229.2
2019-04-04T05:23:56.422Z,216.5
2019-04-04T05:25:08.607Z,147.5
2019-04-04T05:26:20.818Z,177.1
2019-04-04T05:27:33.001Z,206.7
2019-04-04T05:28:45.249Z,216.5
2019-04-04T05:29:57.392Z,200.9
2019-04-04T05:31:09.587Z,180.9
2019-04-04T05:32:21.782Z,233.4
2019-04-04T05:33:33.970Z,165.2
2019-04-04T05:34:46.016Z,181.3
2019-04-04T05:35:58.367Z,145.7
2019-04-04T05:37:10.550Z,136.3
2019-04-04T05:38:22.751Z,157.4
2019-04-04T05:39:34.937Z,173.1
2019-04-04T05:40:47.129Z,108.8
2019-04-04T05:41:59.331Z,153.6
2019-04-04T05:43:11.524Z,194.4
2019-04-04T05:44:23.720Z,218.7
2019-04-04T05:45:35.954Z,211.2
2019-04-04T05:46:48.100Z,161.3
2019-04-04T05:48:00.297Z,160.3
2019-04-04T05:49:12.498Z,172.1
2019-04-04T05:50:24.687Z,178.8
2019-04-04T05:51:36.873Z,167.8
2019-04-04T05:54:01.262Z,218.2
2019-04-04T05:55:13.460Z,186.5
2019-04-04T05:56:25.648Z,164
2019-04-04T05:57:37.841Z,174.5
2019-04-04T05:58:50.037Z,179.2
2019-04-04T06:00:02.228Z,199.1
2019-04-04T06:01:14.425Z,206.4
2019-04-04T06:02:26.621Z,178.3
2019-04-04T06:03:39.157Z,237.3
2019-04-04T06:04:51.007Z,231.1
2019-04-04T06:06:03.020Z,243.9
2019-04-04T06:07:15.395Z,223.1
2019-04-04T06:08:27.586Z,215
2019-04-04T06:09:39.078Z,220
2019-04-04T06:10:51.970Z,170.2
2019-04-04T06:12:04.165Z,151.7
2019-04-04T06:13:16.364Z,136.8
2019-04-04T06:14:28.054Z,132.3
2019-04-04T06:15:40.745Z,156.9
2019-04-04T06:16:52.940Z,149.2
2019-04-04T06:18:05.135Z,122
2019-04-04T06:19:17.332Z,150.9
2019-04-04T06:20:29.520Z,138.4
2019-04-04T06:21:41.712Z,158.5
2019-04-04T06:22:53.914Z,150.9
2019-04-04T06:24:06.147Z,146.7
2019-04-04T06:25:18.294Z,140.5
2019-04-04T06:26:30.500Z,160.1
2019-04-04T06:27:42.069Z,137.4
2019-04-04T06:28:54.880Z,177.9
2019-04-04T06:30:07.007Z,144.9
2019-04-04T06:31:19.263Z,141.4
2019-04-04T06:32:31.465Z,133.6
2019-04-04T06:33:43.650Z,155.4
2019-04-04T06:34:55.846Z,145.3
2019-04-04T06:36:08.042Z,154.1
2019-04-04T06:37:20.308Z,151
2019-04-04T06:38:32.043Z,155.2
2019-04-04T06:39:44.622Z,133.7
2019-04-04T06:40:56.814Z,139.2
2019-04-04T06:42:09.009Z,139.8
2019-04-04T06:43:21.019Z,155.7
2019-04-04T06:44:33.413Z,147.4
2019-04-04T06:45:45.628Z,166.5
2019-04-04T06:46:57.779Z,165.4
2019-04-04T06:48:09.098Z,165.1
2019-04-04T06:49:22.166Z,161.4
2019-04-04T06:50:34.360Z,135
2019-04-04T06:51:46.055Z,142.5
2019-04-04T06:52:58.753Z,161.8
2019-04-04T06:54:10.937Z,138.5
2019-04-04T06:55:23.013Z,153.1
2019-04-04T06:56:35.329Z,166.8
2019-04-04T06:57:47.528Z,143
2019-04-04T06:58:59.726Z,160.5
2019-04-04T07:00:11.909Z,139.6
2019-04-04T07:01:24.109Z,138.7
2019-04-04T07:02:36.300Z,149.2
2019-04-04T07:03:48.497Z,151.3
2019-04-04T07:05:00.815Z,156.5
2019-04-04T07:06:12.871Z,144.7
2019-04-04T07:07:25.077Z,134.4
2019-04-04T07:08:37.262Z,153.2
2019-04-04T07:09:49.458Z,144.8
2019-04-04T07:11:01.066Z,127.7
2019-04-04T07:12:13.842Z,130.9
2019-04-04T07:13:26.037Z,146.2
2019-04-04T07:14:38.257Z,144.2
2019-04-04T07:15:50.004Z,139
2019-04-04T07:17:02.627Z,145.4
2019-04-04T07:18:14.812Z,146.5
2019-04-04T07:19:27.000Z,135.6
2019-04-04T07:20:39.211Z,133.2
2019-04-04T07:21:51.397Z,132
2019-04-04T07:23:03.596Z,132.4
2019-04-04T07:24:15.795Z,138.2
2019-04-04T07:25:27.976Z,123.1
2019-04-04T07:26:40.178Z,144.8
2019-04-04T07:27:52.369Z,160.7
2019-04-04T07:29:04.560Z,132.5
2019-04-04T07:30:16.759Z,134.8
2019-04-04T07:31:28.941Z,137.9
2019-04-04T07:32:41.535Z,128.3
2019-04-04T07:33:53.335Z,130.1
2019-04-04T07:35:05.545Z,130.2
2019-04-04T07:36:17.725Z,137.9
2019-04-04T07:37:29.913Z,128.7
2019-04-04T07:38:42.116Z,128.8
2019-04-04T07:39:54.303Z,129.5
2019-04-04T07:41:06.493Z,136.4
2019-04-04T07:42:18.687Z,122.9
2019-04-04T07:43:30.088Z,121.2
2019-04-04T07:44:43.085Z,133
2019-04-04T07:45:55.268Z,125.2
2019-04-04T07:47:07.461Z,127
2019-04-04T07:48:19.659Z,126.5
2019-04-04T07:49:31.853Z,130
2019-04-04T07:50:44.053Z,123.2
2019-04-04T07:51:56.232Z,143.2
2019-04-04T07:53:08.446Z,124.9
2019-04-04T07:54:20.063Z,144.5
2019-04-04T07:55:32.835Z,132
2019-04-04T07:56:45.002Z,131.4
2019-04-04T07:57:57.205Z,121.2
2019-04-04T07:59:09.409Z,123.1
2019-04-04T08:00:21.599Z,126.7
2019-04-04T08:01:33.792Z,123.8
2019-04-04T08:02:45.993Z,120.7
2019-04-04T08:03:58.176Z,120.3
2019-04-04T08:05:10.037Z,117.6
2019-04-04T08:06:22.569Z,134
2019-04-04T08:07:34.757Z,124.3
2019-04-04T08:08:46.959Z,117
2019-04-04T08:09:59.150Z,113.7
2019-04-04T08:11:11.346Z,114.7
2019-04-04T08:12:23.540Z,115.6
2019-04-04T08:13:35.730Z,114.7
2019-04-04T08:14:47.955Z,109.8
2019-04-04T08:16:00.121Z,111.9
2019-04-04T08:17:12.316Z,107.5
2019-04-04T08:18:24.508Z,112.5
2019-04-04T08:19:36.709Z,106.7
2019-04-04T08:20:48.894Z,102.7
2019-04-04T08:22:01.097Z,101.1
2019-04-04T08:23:13.286Z,107.1
2019-04-04T08:24:25.486Z,101.2
2019-04-04T08:25:37.686Z,101.9
2019-04-04T08:26:49.871Z,100.6
2019-04-04T08:28:02.074Z,114.5
2019-04-04T08:29:14.273Z,102.3
2019-04-04T08:30:26.466Z,98.2
2019-04-04T08:31:38.657Z,106.9
2019-04-04T08:32:50.860Z,101.5
2019-04-04T08:34:03.041Z,105.1
2019-04-04T08:35:15.246Z,104.4
2019-04-04T08:36:27.436Z,108.2
2019-04-04T08:37:39.636Z,105.3
2019-04-04T08:38:51.825Z,121.8
2019-04-04T08:40:04.024Z,109.8
2019-04-04T08:41:16.225Z,109.6
2019-04-04T08:42:28.416Z,87.9
2019-04-04T08:43:40.610Z,86.2
2019-04-04T08:44:52.810Z,88
2019-04-04T08:46:05.006Z,86
2019-04-04T08:47:17.020Z,95.1
2019-04-04T08:48:29.394Z,91.8
2019-04-04T08:49:41.590Z,90.6
2019-04-04T08:50:53.779Z,84.8
2019-04-04T08:52:05.974Z,103.7
2019-04-04T08:53:18.017Z,91.2
2019-04-04T08:54:30.037Z,88.7
2019-04-04T08:55:42.819Z,102.5
2019-04-04T08:56:54.760Z,83.5
2019-04-04T08:58:06.953Z,86.4
2019-04-04T08:59:19.157Z,81
2019-04-04T09:00:31.337Z,85.4
2019-04-04T09:01:43.542Z,84.9
2019-04-04T09:02:55.733Z,84.8
2019-04-04T09:04:07.934Z,83.9
2019-04-04T09:05:20.122Z,88.6
2019-04-04T09:06:32.321Z,79.4
2019-04-04T09:07:44.051Z,83.2
2019-04-04T09:08:56.732Z,73.7
2019-04-04T09:10:08.900Z,74.8
2019-04-04T09:11:21.129Z,78
2019-04-04T09:12:33.286Z,71.4
2019-04-04T09:13:45.628Z,70.5
2019-04-04T09:14:57.682Z,76.4
2019-04-04T09:16:09.089Z,76.6
2019-04-04T09:17:22.073Z,77.4
2019-04-04T09:18:34.276Z,74.5
2019-04-04T09:19:46.458Z,75.5
2019-04-04T09:20:58.659Z,77.8
2019-04-04T09:22:10.086Z,74
2019-04-04T09:23:23.047Z,74.4
2019-04-04T09:24:35.254Z,77.1
2019-04-04T09:25:47.434Z,79.2
2019-04-04T09:26:59.644Z,84.3
2019-04-04T09:28:11.827Z,83.9
2019-04-04T09:29:24.025Z,81
2019-04-04T09:30:36.022Z,88
2019-04-04T09:31:48.416Z,85.5
2019-04-04T09:33:00.608Z,87.7
2019-04-04T09:34:12.008Z,89.9
2019-04-04T09:35:25.006Z,85.6
2019-04-04T09:36:37.207Z,91
2019-04-04T09:37:49.397Z,89
2019-04-04T09:39:01.590Z,86.8
2019-04-04T09:40:13.791Z,86.1
2019-04-04T09:41:25.978Z,84.9
2019-04-04T09:42:38.178Z,82.5
2019-04-04T09:43:50.380Z,83.6
2019-04-04T09:45:02.567Z,84.3
2019-04-04T09:46:14.768Z,91.9
2019-04-04T09:47:26.964Z,92.4
2019-04-04T09:48:39.015Z,87.9
2019-04-04T09:49:51.355Z,98.2
2019-04-04T09:51:03.550Z,93.2
2019-04-04T09:52:15.741Z,90.8
2019-04-04T09:53:27.971Z,91.3
2019-04-04T09:54:40.149Z,89.1
2019-04-04T09:55:52.340Z,94.2
2019-04-04T09:57:04.535Z,88
2019-04-04T09:58:16.713Z,83
2019-04-04T09:59:28.912Z,95
2019-04-04T10:00:41.142Z,82.9
2019-04-04T10:01:53.309Z,89.2
2019-04-04T10:03:05.499Z,89.2
2019-04-04T10:04:17.697Z,86.2
2019-04-04T10:05:29.883Z,83.7
2019-04-04T10:06:42.088Z,80.2
2019-04-04T10:07:54.285Z,82.3
2019-04-04T10:09:06.477Z,83.2
2019-04-04T10:10:18.677Z,84.6
2019-04-04T10:11:30.863Z,85.1
2019-04-04T10:12:43.064Z,83.8
2019-04-04T10:13:55.266Z,85.8
2019-04-04T10:15:07.451Z,86.4
2019-04-04T10:16:19.654Z,86.2
2019-04-04T10:17:31.844Z,86
2019-04-04T10:18:44.059Z,84.9
2019-04-04T10:19:56.236Z,82.8
2019-04-04T10:21:08.433Z,82.7
2019-04-04T10:22:20.625Z,85.5
2019-04-04T10:23:32.823Z,86.8
2019-04-04T10:24:45.017Z,83.8
2019-04-04T10:25:57.216Z,86.2
2019-04-04T10:27:09.408Z,89.6
2019-04-04T10:28:21.605Z,87
2019-04-04T10:29:33.809Z,83.2
2019-04-04T10:30:45.099Z,93.7
2019-04-04T10:31:58.213Z,95.8
2019-04-04T10:33:10.389Z,84.8
2019-04-04T10:34:22.579Z,82.2
2019-04-04T10:35:34.783Z,81.2
2019-04-04T10:36:47.166Z,80.9
2019-04-04T10:37:59.167Z,89.3
2019-04-04T10:39:11.363Z,86.5
2019-04-04T10:40:23.560Z,81.7
2019-04-04T10:41:35.754Z,82.1
2019-04-04T10:42:47.955Z,90.7
2019-04-04T10:44:00.139Z,84.8
2019-04-04T10:45:12.347Z,81.2
2019-04-04T10:46:24.053Z,85.9
2019-04-04T10:47:36.736Z,79.4
2019-04-04T10:48:48.938Z,87.2
2019-04-04T10:50:01.142Z,95.1
2019-04-04T10:51:13.322Z,85.4
2019-04-04T10:52:25.514Z,84.6
2019-04-04T10:53:37.727Z,84.1
2019-04-04T10:54:49.907Z,79.7
2019-04-04T10:56:02.106Z,91.6
2019-04-04T10:57:14.290Z,88.5
2019-04-04T10:58:26.493Z,87.9
2019-04-04T10:59:38.693Z,85.4
2019-04-04T11:00:50.880Z,86.5
2019-04-04T11:02:03.082Z,84.3
2019-04-04T11:03:15.270Z,79.3
2019-04-04T11:04:27.479Z,77.1
2019-04-04T11:05:39.006Z,74
2019-04-04T11:06:51.086Z,78.7
2019-04-04T11:08:04.052Z,79.7
2019-04-04T11:09:16.254Z,81.7
2019-04-04T11:10:28.453Z,76.3
2019-04-04T11:11:40.646Z,76
2019-04-04T11:12:52.084Z,73.9
2019-04-04T11:14:05.029Z,80
2019-04-04T11:15:17.232Z,77.9
2019-04-04T11:16:29.042Z,77.8
2019-04-04T11:17:41.623Z,74.4
2019-04-04T11:18:53.819Z,76.3
2019-04-04T11:20:06.012Z,74.4
2019-04-04T11:21:18.210Z,71.2
2019-04-04T11:23:42.592Z,76.6
2019-04-04T11:24:54.791Z,73.9
2019-04-04T11:26:06.989Z,71.6
2019-04-04T11:27:19.019Z,72.1
2019-04-04T11:28:31.038Z,76
2019-04-04T11:29:43.566Z,73.2
2019-04-04T11:30:55.770Z,76.9
2019-04-04T11:32:07.962Z,72.8
2019-04-04T11:33:20.016Z,72.1
2019-04-04T11:34:32.035Z,68.1
2019-04-04T11:35:44.548Z,74.9
2019-04-04T11:36:56.756Z,71.7
2019-04-04T11:38:08.945Z,67.7
2019-04-04T11:39:21.148Z,70.6
2019-04-04T11:40:33.332Z,67.4
2019-04-04T11:41:45.532Z,69.8
2019-04-04T11:42:57.720Z,73.7
2019-04-04T11:44:09.921Z,70
2019-04-04T11:45:22.110Z,68.4
2019-04-04T11:46:34.342Z,65.5
2019-04-04T11:47:46.499Z,65
2019-04-04T11:48:58.069Z,65.6
2019-04-04T11:50:10.891Z,66.6
2019-04-04T11:51:23.000Z,69.4
2019-04-04T11:52:35.280Z,68.9
2019-04-04T11:53:47.491Z,67.4
2019-04-04T11:54:59.673Z,71.7
2019-04-04T11:56:11.870Z,70.1
2019-04-04T11:57:24.060Z,65.5
2019-04-04T11:58:36.256Z,63.5
2019-04-04T11:59:48.444Z,65.6
2019-04-04T12:01:00.650Z,66.9
2019-04-04T12:02:12.843Z,64.2
2019-04-04T12:03:25.036Z,63.1
2019-04-04T12:04:37.228Z,64
2019-04-04T12:05:49.424Z,69.2
2019-04-04T12:07:01.619Z,62.9
2019-04-04T12:08:13.818Z,66.5
2019-04-04T12:09:26.023Z,63
2019-04-04T12:10:38.209Z,64.2
2019-04-04T12:11:50.392Z,63.1
2019-04-04T12:13:02.600Z,62.3
2019-04-04T12:14:14.079Z,64.3
2019-04-04T12:15:26.985Z,62.5
2019-04-04T12:16:39.176Z,58.6
2019-04-04T12:17:51.387Z,62.1
2019-04-04T12:19:03.579Z,63.1
2019-04-04T12:20:15.768Z,64.1
2019-04-04T12:21:27.962Z,61.7
2019-04-04T12:22:40.154Z,63.3
2019-04-04T12:23:52.347Z,64
2019-04-04T12:25:04.546Z,56.6
2019-04-04T12:26:16.738Z,64.3
2019-04-04T12:27:28.937Z,59.8
2019-04-04T12:28:41.159Z,62.5
2019-04-04T12:29:53.331Z,62.1
2019-04-04T12:31:05.547Z,62.7
2019-04-04T12:32:17.072Z,58.7
2019-04-04T12:33:29.928Z,59.6
2019-04-04T12:34:42.103Z,62.1
2019-04-04T12:35:54.299Z,59.1
2019-04-04T12:37:06.513Z,56.7
2019-04-04T12:38:18.695Z,56
2019-04-04T12:39:30.887Z,59.7
2019-04-04T12:40:43.092Z,54.6
2019-04-04T12:41:55.278Z,56.6
2019-04-04T12:43:07.482Z,56
2019-04-04T12:44:19.668Z,51.3
2019-04-04T12:45:31.863Z,56.7
2019-04-04T12:46:44.057Z,55.3
2019-04-04T12:47:56.025Z,53.2
2019-04-04T12:49:08.448Z,53.9
2019-04-04T12:50:20.652Z,55.6
2019-04-04T12:52:45.038Z,51.9
2019-04-04T12:53:57.237Z,53.6
2019-04-04T12:55:09.435Z,51.1
2019-04-04T12:56:21.629Z,50.5
2019-04-04T12:57:33.932Z,52.2
2019-04-04T12:58:46.021Z,58.3
2019-04-04T12:59:58.208Z,49.8
2019-04-04T13:01:10.403Z,54.1
2019-04-04T13:02:22.609Z,52.9
2019-04-04T13:03:34.797Z,48.4
2019-04-04T13:04:46.997Z,49.1
2019-04-04T13:05:59.018Z,51.1
2019-04-04T13:07:11.390Z,48.5
2019-04-04T13:08:23.595Z,48.3
2019-04-04T13:09:35.777Z,52.5
2019-04-04T13:10:47.981Z,47.6
2019-04-04T13:12:00.276Z,47.8
2019-04-04T13:13:12.367Z,53.7
2019-04-04T13:14:24.553Z,48.3
2019-04-04T13:15:36.757Z,46.6
2019-04-04T13:16:48.955Z,48.7
2019-04-04T13:18:01.168Z,47.7
2019-04-04T13:19:13.345Z,49.2
2019-04-04T13:20:25.533Z,50.5
2019-04-04T13:21:37.733Z,50.9
2019-04-04T13:22:49.935Z,48.5
2019-04-04T13:24:02.123Z,51.2
2019-04-04T13:25:14.324Z,50.4
2019-04-04T13:26:26.521Z,51.3
2019-04-04T13:27:38.717Z,50.5
2019-04-04T13:28:50.911Z,47
2019-04-04T13:30:03.133Z,49
2019-04-04T13:31:15.297Z,48.8
2019-04-04T13:32:27.496Z,46.7
2019-04-04T13:33:39.696Z,47.4
2019-04-04T13:34:51.886Z,50.9
2019-04-04T13:36:04.086Z,49
2019-04-04T13:37:16.275Z,49
2019-04-04T13:38:28.476Z,48.2
2019-04-04T13:39:40.677Z,49.5
2019-04-04T13:40:52.865Z,47.5
2019-04-04T13:42:05.066Z,51.7
2019-04-04T13:43:17.394Z,53.2
2019-04-04T13:44:29.455Z,51.3
2019-04-04T13:45:41.646Z,50.7
2019-04-04T13:46:53.848Z,49.2
2019-04-04T13:48:06.035Z,52
2019-04-04T13:49:18.237Z,51.1
2019-04-04T13:50:30.439Z,49.8
2019-04-04T13:51:42.644Z,51.1
2019-04-04T13:52:54.811Z,49.5
2019-04-04T13:54:07.019Z,47.8
2019-04-04T13:55:19.205Z,50.1
2019-04-04T13:56:31.040Z,53.9
2019-04-04T13:57:43.629Z,52.7
2019-04-04T13:58:55.800Z,50.4
2019-04-04T14:00:08.006Z,49.9
2019-04-04T14:01:20.186Z,50.7
2019-04-04T14:02:32.388Z,56
2019-04-04T14:03:44.570Z,50.4
2019-04-04T14:04:56.780Z,54.5
2019-04-04T14:06:08.966Z,50.2
2019-04-04T14:07:21.166Z,52.2
2019-04-04T14:08:33.354Z,53.5
2019-04-04T14:09:45.549Z,51.6
2019-04-04T14:10:57.746Z,48.5
2019-04-04T14:12:09.946Z,51.5
2019-04-04T14:13:22.146Z,50.6
2019-04-04T14:14:34.335Z,49.9
2019-04-04T14:15:46.536Z,51.7
2019-04-04T14:16:58.727Z,50
2019-04-04T14:18:10.926Z,52.2
2019-04-04T14:19:23.113Z,55.4
2019-04-04T14:20:35.316Z,53.6
2019-04-04T14:21:47.504Z,51.1
2019-04-04T14:22:59.070Z,55.9
2019-04-04T14:24:12.186Z,51.8
2019-04-04T14:25:24.095Z,53.8
2019-04-04T14:26:36.291Z,55.6
2019-04-04T14:27:48.486Z,58.2
2019-04-04T14:29:00.690Z,57.2
2019-04-04T14:30:12.881Z,56
2019-04-04T14:31:25.074Z,52.2
2019-04-04T14:32:37.263Z,53.7
2019-04-04T14:33:49.478Z,53.4
2019-04-04T14:35:01.656Z,55.6
2019-04-04T14:36:13.859Z,56.2
2019-04-04T14:37:26.061Z,51.1
2019-04-04T14:38:38.252Z,50.6
2019-04-04T14:39:50.438Z,51.4
2019-04-04T14:41:02.635Z,54.4
2019-04-04T14:42:14.839Z,52.6
2019-04-04T14:43:27.022Z,55.6
2019-04-04T14:44:39.229Z,52.7
2019-04-04T14:45:51.417Z,54.1
2019-04-04T14:47:03.620Z,53.2
2019-04-04T14:48:15.804Z,52.7
2019-04-04T14:49:28.000Z,54.4
2019-04-04T14:50:40.209Z,55.4
2019-04-04T14:51:52.396Z,51.5
2019-04-04T14:53:04.596Z,56.4
2019-04-04T14:54:16.782Z,52.8
2019-04-04T14:55:28.098Z,54.4
2019-04-04T14:56:41.186Z,54
2019-04-04T14:57:53.379Z,57.1
2019-04-04T14:59:05.575Z,50.3
2019-04-04T15:00:17.770Z,55.4
2019-04-04T15:01:29.966Z,55.3
2019-04-04T15:02:42.152Z,55
2019-04-04T15:03:54.350Z,52.5
2019-04-04T15:05:06.546Z,50.7
2019-04-04T15:06:18.746Z,54.9
2019-04-04T15:07:30.934Z,56.8
2019-04-04T15:08:43.135Z,54.4
2019-04-04T15:09:55.330Z,55.8
2019-04-04T15:11:07.526Z,51.7
2019-04-04T15:12:19.729Z,54.1
2019-04-04T15:13:31.918Z,53.7
2019-04-04T15:14:44.142Z,51.5
2019-04-04T15:15:56.327Z,55.2
2019-04-04T15:17:08.508Z,55.5
2019-04-04T15:18:20.702Z,54.4
2019-04-04T15:19:32.902Z,54.3
2019-04-04T15:20:45.094Z,52.5
2019-04-04T15:21:57.299Z,55.7
2019-04-04T15:23:09.482Z,56.2
2019-04-04T15:24:21.675Z,56.5
2019-04-04T15:25:33.873Z,51.7
2019-04-04T15:26:46.084Z,54.4
2019-04-04T15:27:58.414Z,54.4
2019-04-04T15:29:10.467Z,52.7
2019-04-04T15:30:22.671Z,54.2
2019-04-04T15:31:34.867Z,58.8
2019-04-04T15:32:47.058Z,53.7
2019-04-04T15:33:59.244Z,53.2
2019-04-04T15:35:11.440Z,48.8
2019-04-04T15:37:35.831Z,54
2019-04-04T15:38:48.024Z,54.2
2019-04-04T15:40:00.226Z,52.6
2019-04-04T15:41:12.411Z,55.2
2019-04-04T15:42:24.617Z,53.6
2019-04-04T15:43:36.816Z,56.3
2019-04-04T15:44:49.009Z,54
2019-04-04T15:46:01.206Z,54.1
2019-04-04T15:47:13.399Z,54
2019-04-04T15:48:25.593Z,52.9
2019-04-04T15:49:37.956Z,54.7
2019-04-04T15:50:49.098Z,53.7
2019-04-04T15:52:02.187Z,56.1
2019-04-04T15:53:14.404Z,52.1
2019-04-04T15:54:26.576Z,54.7
2019-04-04T15:55:38.767Z,56
2019-04-04T15:56:51.000Z,55.9
2019-04-04T15:58:03.167Z,55.9
2019-04-04T15:59:15.355Z,55.2
2019-04-04T16:00:27.552Z,52.5
2019-04-04T16:01:40.244Z,54.6
2019-04-04T16:02:51.948Z,56
2019-04-04T16:04:04.139Z,52.2
2019-04-04T16:05:16.334Z,57
2019-04-04T16:06:28.535Z,53.8
2019-04-04T16:07:40.725Z,56
2019-04-04T16:08:52.927Z,55.2
2019-04-04T16:10:05.111Z,56.8
2019-04-04T16:11:17.314Z,59.6
2019-04-04T16:12:29.543Z,57.6
2019-04-04T16:13:41.705Z,60.2
2019-04-04T16:14:53.921Z,60.2